weather.gov     
National Weather Service

Terminal Aerodrome Forecast
NWS Homepage
This page is being discontinued on March 12, 2014.
The same data is available at this site. Please update your bookmarks.
Thank you, and we apologize for the inconvenience.
Please send an email to SR-SRH.Webmaster@noaa.gov with any concerns.


Current Version
Previous Version:    01  02  03  04  05  06  07  08  09  10  11  12  13  14  15  16  17  18  19  20  21  22  23  24  25  26  27  28  29  30  
   31  
[Printable]
690
FTUS43 KARX 232320
TAFLSE
TAF
KLSE 232320Z 2400/2424 12010KT P6SM -SHRA OVC060
     FM240200 13012KT P6SM OVC060
     FM240700 13012G18KT P6SM -SHRA OVC035
     FM241200 13012G18KT 4SM -RA BR OVC015
     FM241800 13010KT 6SM -RA OVC008=




690
FTUS43 KARX 232320
TAFLSE
TAF
KLSE 232320Z 2400/2424 12010KT P6SM -SHRA OVC060
     FM240200 13012KT P6SM OVC060
     FM240700 13012G18KT P6SM -SHRA OVC035
     FM241200 13012G18KT 4SM -RA BR OVC015
     FM241800 13010KT 6SM -RA OVC008=


U.S. Dept. of Commerce
NOAA National Weather Service
1325 East West Highway
Silver Spring, MD 20910
E-mail: w-nws.webmaster@noaa.gov
Page last modified: May 16, 2007
NATIONAL WEATHER SERVICE: for Safety, for Work, for Fun - FOR LIFE